sensor_id;sensor_type;location;lat;lon;timestamp;temperature;humidity
40374;DHT22;26079;45.958;12.492;2023-06-04T00:01:53;17.10;99.90
40374;DHT22;26079;45.958;12.492;2023-06-04T00:04:18;17.10;99.90
40374;DHT22;26079;45.958;12.492;2023-06-04T00:06:44;17.10;99.90
40374;DHT22;26079;45.958;12.492;2023-06-04T00:09:10;17.10;99.90
40374;DHT22;26079;45.958;12.492;2023-06-04T00:11:35;17.10;99.90
40374;DHT22;26079;45.958;12.492;2023-06-04T00:14:02;17.00;99.90
40374;DHT22;26079;45.958;12.492;2023-06-04T00:16:28;17.10;99.90
40374;DHT22;26079;45.958;12.492;2023-06-04T00:18:54;17.00;99.90
40374;DHT22;26079;45.958;12.492;2023-06-04T00:21:20;17.00;99.90
40374;DHT22;26079;45.958;12.492;2023-06-04T00:23:45;17.00;99.90
40374;DHT22;26079;45.958;12.492;2023-06-04T00:26:11;17.00;99.90
40374;DHT22;26079;45.958;12.492;2023-06-04T00:28:37;17.00;99.90
40374;DHT22;26079;45.958;12.492;2023-06-04T00:31:05;17.00;99.90
40374;DHT22;26079;45.958;12.492;2023-06-04T00:33:31;17.00;99.90
40374;DHT22;26079;45.958;12.492;2023-06-04T00:35:57;17.00;99.90
40374;DHT22;26079;45.958;12.492;2023-06-04T00:38:23;17.00;99.90
40374;DHT22;26079;45.958;12.492;2023-06-04T00:40:48;17.00;99.90
40374;DHT22;26079;45.958;12.492;2023-06-04T00:43:14;17.00;99.90
40374;DHT22;26079;45.958;12.492;2023-06-04T00:45:40;16.90;99.90
40374;DHT22;26079;45.958;12.492;2023-06-04T00:48:07;17.00;99.90
40374;DHT22;26079;45.958;12.492;2023-06-04T00:50:33;16.90;99.90
40374;DHT22;26079;45.958;12.492;2023-06-04T00:53:01;16.90;99.90
40374;DHT22;26079;45.958;12.492;2023-06-04T00:55:27;16.90;99.90
40374;DHT22;26079;45.958;12.492;2023-06-04T00:57:53;16.90;99.90
40374;DHT22;26079;45.958;12.492;2023-06-04T01:00:19;16.90;99.90
40374;DHT22;26079;45.958;12.492;2023-06-04T01:02:47;16.90;99.90
40374;DHT22;26079;45.958;12.492;2023-06-04T01:08:04;17.00;99.90
40374;DHT22;26079;45.958;12.492;2023-06-04T01:10:34;16.90;99.90
40374;DHT22;26079;45.958;12.492;2023-06-04T01:13:00;16.90;99.90
40374;DHT22;26079;45.958;12.492;2023-06-04T01:15:26;17.00;99.90
40374;DHT22;26079;45.958;12.492;2023-06-04T01:17:57;17.00;99.90
40374;DHT22;26079;45.958;12.492;2023-06-04T01:20:43;17.00;99.90
40374;DHT22;26079;45.958;12.492;2023-06-04T01:24:11;17.00;99.90
40374;DHT22;26079;45.958;12.492;2023-06-04T01:26:25;17.00;99.90
40374;DHT22;26079;45.958;12.492;2023-06-04T01:28:52;16.90;99.90
40374;DHT22;26079;45.958;12.492;2023-06-04T01:31:19;16.90;99.90
40374;DHT22;26079;45.958;12.492;2023-06-04T01:33:54;16.90;99.90
40374;DHT22;26079;45.958;12.492;2023-06-04T01:36:21;16.90;99.90
40374;DHT22;26079;45.958;12.492;2023-06-04T01:38:47;16.80;99.90
40374;DHT22;26079;45.958;12.492;2023-06-04T01:41:12;16.80;99.90
40374;DHT22;26079;45.958;12.492;2023-06-04T01:43:38;16.80;99.90
40374;DHT22;26079;45.958;12.492;2023-06-04T01:46:04;16.80;99.90
40374;DHT22;26079;45.958;12.492;2023-06-04T01:48:29;16.90;99.90
40374;DHT22;26079;45.958;12.492;2023-06-04T01:50:57;16.90;99.90
40374;DHT22;26079;45.958;12.492;2023-06-04T01:53:23;16.90;99.90
40374;DHT22;26079;45.958;12.492;2023-06-04T01:55:49;17.00;99.90
40374;DHT22;26079;45.958;12.492;2023-06-04T01:58:18;17.00;99.90
40374;DHT22;26079;45.958;12.492;2023-06-04T02:00:49;17.00;99.90
40374;DHT22;26079;45.958;12.492;2023-06-04T02:03:15;17.00;99.90
40374;DHT22;26079;45.958;12.492;2023-06-04T02:05:41;17.10;99.90
40374;DHT22;26079;45.958;12.492;2023-06-04T02:08:10;17.10;99.90
40374;DHT22;26079;45.958;12.492;2023-06-04T02:10:36;17.10;99.90
40374;DHT22;26079;45.958;12.492;2023-06-04T02:13:03;17.10;99.90
40374;DHT22;26079;45.958;12.492;2023-06-04T02:15:29;17.10;99.90
40374;DHT22;26079;45.958;12.492;2023-06-04T02:17:58;17.10;99.90
40374;DHT22;26079;45.958;12.492;2023-06-04T02:20:27;17.00;99.90
40374;DHT22;26079;45.958;12.492;2023-06-04T02:22:54;17.00;99.90
40374;DHT22;26079;45.958;12.492;2023-06-04T02:25:21;16.90;99.90
40374;DHT22;26079;45.958;12.492;2023-06-04T02:27:46;16.80;99.90
40374;DHT22;26079;45.958;12.492;2023-06-04T02:30:12;16.80;99.90
40374;DHT22;26079;45.958;12.492;2023-06-04T02:32:38;16.80;99.90
40374;DHT22;26079;45.958;12.492;2023-06-04T02:35:04;16.80;99.90
40374;DHT22;26079;45.958;12.492;2023-06-04T02:37:30;16.70;99.90
40374;DHT22;26079;45.958;12.492;2023-06-04T02:39:56;16.80;99.90
40374;DHT22;26079;45.958;12.492;2023-06-04T02:42:21;16.80;99.90
40374;DHT22;26079;45.958;12.492;2023-06-04T02:44:47;16.80;99.90
40374;DHT22;26079;45.958;12.492;2023-06-04T02:47:13;16.80;99.90
40374;DHT22;26079;45.958;12.492;2023-06-04T02:49:38;16.80;99.90
40374;DHT22;26079;45.958;12.492;2023-06-04T02:52:04;16.80;99.90
40374;DHT22;26079;45.958;12.492;2023-06-04T02:54:30;16.90;99.90
40374;DHT22;26079;45.958;12.492;2023-06-04T02:56:56;16.80;99.90
40374;DHT22;26079;45.958;12.492;2023-06-04T02:59:22;16.90;99.90
40374;DHT22;26079;45.958;12.492;2023-06-04T03:01:48;16.90;99.90
40374;DHT22;26079;45.958;12.492;2023-06-04T03:04:13;16.90;99.90
40374;DHT22;26079;45.958;12.492;2023-06-04T03:06:41;16.90;99.90
40374;DHT22;26079;45.958;12.492;2023-06-04T03:09:10;16.90;99.90
40374;DHT22;26079;45.958;12.492;2023-06-04T03:11:36;16.90;99.90
40374;DHT22;26079;45.958;12.492;2023-06-04T03:14:02;16.90;99.90
40374;DHT22;26079;45.958;12.492;2023-06-04T03:16:28;16.90;99.90
40374;DHT22;26079;45.958;12.492;2023-06-04T03:18:53;16.90;99.90
40374;DHT22;26079;45.958;12.492;2023-06-04T03:21:19;16.90;99.90
40374;DHT22;26079;45.958;12.492;2023-06-04T03:23:45;16.90;99.90
40374;DHT22;26079;45.958;12.492;2023-06-04T03:26:10;16.90;99.90
40374;DHT22;26079;45.958;12.492;2023-06-04T03:28:41;16.90;99.90
40374;DHT22;26079;45.958;12.492;2023-06-04T03:31:07;17.00;99.90
40374;DHT22;26079;45.958;12.492;2023-06-04T03:33:32;17.00;99.90
40374;DHT22;26079;45.958;12.492;2023-06-04T03:35:58;17.00;99.90
40374;DHT22;26079;45.958;12.492;2023-06-04T03:38:24;17.00;99.90
40374;DHT22;26079;45.958;12.492;2023-06-04T03:40:50;17.10;99.90
40374;DHT22;26079;45.958;12.492;2023-06-04T03:43:18;17.10;99.90
40374;DHT22;26079;45.958;12.492;2023-06-04T03:45:44;17.10;99.90
40374;DHT22;26079;45.958;12.492;2023-06-04T03:48:10;17.10;99.90
40374;DHT22;26079;45.958;12.492;2023-06-04T03:50:36;17.10;99.90
40374;DHT22;26079;45.958;12.492;2023-06-04T03:53:02;17.10;99.90
40374;DHT22;26079;45.958;12.492;2023-06-04T03:55:31;17.10;99.90
40374;DHT22;26079;45.958;12.492;2023-06-04T03:58:00;17.10;99.90
40374;DHT22;26079;45.958;12.492;2023-06-04T04:00:26;17.10;99.90
40374;DHT22;26079;45.958;12.492;2023-06-04T04:02:51;17.10;99.90
40374;DHT22;26079;45.958;12.492;2023-06-04T04:05:17;17.10;99.90
40374;DHT22;26079;45.958;12.492;2023-06-04T04:07:43;17.20;99.90
40374;DHT22;26079;45.958;12.492;2023-06-04T04:10:08;17.20;99.90
40374;DHT22;26079;45.958;12.492;2023-06-04T04:12:35;17.30;99.90
40374;DHT22;26079;45.958;12.492;2023-06-04T04:15:01;17.30;99.90
40374;DHT22;26079;45.958;12.492;2023-06-04T04:17:26;17.30;99.90
40374;DHT22;26079;45.958;12.492;2023-06-04T04:19:52;17.30;99.90
40374;DHT22;26079;45.958;12.492;2023-06-04T04:22:18;17.40;99.90
40374;DHT22;26079;45.958;12.492;2023-06-04T04:24:44;17.50;99.90
40374;DHT22;26079;45.958;12.492;2023-06-04T04:27:10;17.50;99.90
40374;DHT22;26079;45.958;12.492;2023-06-04T04:29:39;17.60;99.90
40374;DHT22;26079;45.958;12.492;2023-06-04T04:32:05;17.60;99.90
40374;DHT22;26079;45.958;12.492;2023-06-04T04:34:50;17.70;99.90
40374;DHT22;26079;45.958;12.492;2023-06-04T04:37:20;17.80;99.90
40374;DHT22;26079;45.958;12.492;2023-06-04T04:39:49;17.90;99.90
40374;DHT22;26079;45.958;12.492;2023-06-04T04:42:17;17.90;99.90
40374;DHT22;26079;45.958;12.492;2023-06-04T04:44:43;18.00;99.90
40374;DHT22;26079;45.958;12.492;2023-06-04T04:47:16;18.00;99.90
40374;DHT22;26079;45.958;12.492;2023-06-04T04:49:41;18.10;99.90
40374;DHT22;26079;45.958;12.492;2023-06-04T04:52:07;18.20;99.90
40374;DHT22;26079;45.958;12.492;2023-06-04T04:54:33;18.20;99.90
40374;DHT22;26079;45.958;12.492;2023-06-04T04:56:58;18.30;99.90
40374;DHT22;26079;45.958;12.492;2023-06-04T04:59:24;18.30;99.90
40374;DHT22;26079;45.958;12.492;2023-06-04T05:01:50;18.40;99.90
40374;DHT22;26079;45.958;12.492;2023-06-04T05:04:15;18.40;99.90
40374;DHT22;26079;45.958;12.492;2023-06-04T05:06:41;18.50;99.90
40374;DHT22;26079;45.958;12.492;2023-06-04T05:09:07;18.60;99.90
40374;DHT22;26079;45.958;12.492;2023-06-04T05:11:33;18.60;99.90
40374;DHT22;26079;45.958;12.492;2023-06-04T05:13:58;18.70;99.90
40374;DHT22;26079;45.958;12.492;2023-06-04T05:16:24;19.00;99.90
40374;DHT22;26079;45.958;12.492;2023-06-04T05:18:50;19.20;99.90
40374;DHT22;26079;45.958;12.492;2023-06-04T05:21:17;19.20;99.90
40374;DHT22;26079;45.958;12.492;2023-06-04T05:23:43;19.00;99.90
40374;DHT22;26079;45.958;12.492;2023-06-04T05:26:13;18.90;99.90
40374;DHT22;26079;45.958;12.492;2023-06-04T05:28:39;18.90;99.90
40374;DHT22;26079;45.958;12.492;2023-06-04T05:31:09;18.80;99.90
40374;DHT22;26079;45.958;12.492;2023-06-04T05:33:35;18.70;99.90
40374;DHT22;26079;45.958;12.492;2023-06-04T05:36:01;18.70;99.90
40374;DHT22;26079;45.958;12.492;2023-06-04T05:38:27;18.70;99.90
40374;DHT22;26079;45.958;12.492;2023-06-04T05:40:56;18.70;99.90
40374;DHT22;26079;45.958;12.492;2023-06-04T05:43:22;18.80;99.90
40374;DHT22;26079;45.958;12.492;2023-06-04T05:45:48;18.80;99.90
40374;DHT22;26079;45.958;12.492;2023-06-04T05:48:14;18.80;99.90
40374;DHT22;26079;45.958;12.492;2023-06-04T05:50:40;18.80;99.90
40374;DHT22;26079;45.958;12.492;2023-06-04T05:53:05;18.80;99.90
40374;DHT22;26079;45.958;12.492;2023-06-04T05:55:31;18.80;99.90
40374;DHT22;26079;45.958;12.492;2023-06-04T05:57:57;18.80;99.90
40374;DHT22;26079;45.958;12.492;2023-06-04T06:00:23;18.90;99.90
40374;DHT22;26079;45.958;12.492;2023-06-04T06:02:50;18.90;99.90
40374;DHT22;26079;45.958;12.492;2023-06-04T06:05:17;18.90;99.90
40374;DHT22;26079;45.958;12.492;2023-06-04T06:07:44;19.10;99.90
40374;DHT22;26079;45.958;12.492;2023-06-04T06:10:10;19.20;99.90
40374;DHT22;26079;45.958;12.492;2023-06-04T06:12:36;19.20;99.90
40374;DHT22;26079;45.958;12.492;2023-06-04T06:15:02;19.30;99.90
40374;DHT22;26079;45.958;12.492;2023-06-04T06:17:28;19.30;99.90
40374;DHT22;26079;45.958;12.492;2023-06-04T06:19:54;19.30;99.90
40374;DHT22;26079;45.958;12.492;2023-06-04T06:22:20;19.30;99.90
40374;DHT22;26079;45.958;12.492;2023-06-04T06:24:46;19.30;99.60
40374;DHT22;26079;45.958;12.492;2023-06-04T06:27:14;19.30;99.40
40374;DHT22;26079;45.958;12.492;2023-06-04T06:29:41;19.30;99.70
40374;DHT22;26079;45.958;12.492;2023-06-04T06:32:07;19.30;99.90
40374;DHT22;26079;45.958;12.492;2023-06-04T06:34:33;19.30;99.90
40374;DHT22;26079;45.958;12.492;2023-06-04T06:36:59;19.30;99.90
40374;DHT22;26079;45.958;12.492;2023-06-04T06:39:24;19.30;99.90
40374;DHT22;26079;45.958;12.492;2023-06-04T06:41:50;19.40;99.90
40374;DHT22;26079;45.958;12.492;2023-06-04T06:44:16;19.40;99.50
40374;DHT22;26079;45.958;12.492;2023-06-04T06:46:42;19.40;99.90
40374;DHT22;26079;45.958;12.492;2023-06-04T06:49:07;19.40;99.90
40374;DHT22;26079;45.958;12.492;2023-06-04T06:51:33;19.40;98.60
40374;DHT22;26079;45.958;12.492;2023-06-04T06:53:59;19.40;99.40
40374;DHT22;26079;45.958;12.492;2023-06-04T06:56:25;19.40;99.90
40374;DHT22;26079;45.958;12.492;2023-06-04T06:58:51;19.50;99.90
40374;DHT22;26079;45.958;12.492;2023-06-04T07:01:17;19.50;99.90
40374;DHT22;26079;45.958;12.492;2023-06-04T07:03:43;19.50;99.90
40374;DHT22;26079;45.958;12.492;2023-06-04T07:06:09;19.60;99.10
40374;DHT22;26079;45.958;12.492;2023-06-04T07:08:35;19.70;99.50
40374;DHT22;26079;45.958;12.492;2023-06-04T07:11:03;19.80;99.90
40374;DHT22;26079;45.958;12.492;2023-06-04T07:13:29;19.80;97.90
40374;DHT22;26079;45.958;12.492;2023-06-04T07:15:58;19.80;96.90
40374;DHT22;26079;45.958;12.492;2023-06-04T07:18:24;19.80;96.40
40374;DHT22;26079;45.958;12.492;2023-06-04T07:20:50;19.80;96.80
40374;DHT22;26079;45.958;12.492;2023-06-04T07:23:18;19.80;96.00
40374;DHT22;26079;45.958;12.492;2023-06-04T07:25:44;19.80;96.10
40374;DHT22;26079;45.958;12.492;2023-06-04T07:28:09;19.80;94.90
40374;DHT22;26079;45.958;12.492;2023-06-04T07:30:35;19.80;95.20
40374;DHT22;26079;45.958;12.492;2023-06-04T07:33:02;19.80;96.70
40374;DHT22;26079;45.958;12.492;2023-06-04T07:35:27;19.90;96.00
40374;DHT22;26079;45.958;12.492;2023-06-04T07:37:53;19.90;96.60
40374;DHT22;26079;45.958;12.492;2023-06-04T07:40:19;20.00;95.10
40374;DHT22;26079;45.958;12.492;2023-06-04T07:42:45;20.00;95.70
40374;DHT22;26079;45.958;12.492;2023-06-04T07:45:13;20.00;96.60
40374;DHT22;26079;45.958;12.492;2023-06-04T07:47:38;20.10;96.00
40374;DHT22;26079;45.958;12.492;2023-06-04T07:50:05;20.10;93.90
40374;DHT22;26079;45.958;12.492;2023-06-04T07:52:32;20.10;94.50
40374;DHT22;26079;45.958;12.492;2023-06-04T07:54:59;20.10;94.40
40374;DHT22;26079;45.958;12.492;2023-06-04T07:57:26;20.20;94.20
40374;DHT22;26079;45.958;12.492;2023-06-04T07:59:52;20.10;94.50
40374;DHT22;26079;45.958;12.492;2023-06-04T08:02:18;20.10;95.70
40374;DHT22;26079;45.958;12.492;2023-06-04T08:04:44;20.10;94.90
40374;DHT22;26079;45.958;12.492;2023-06-04T08:07:11;20.10;94.40
40374;DHT22;26079;45.958;12.492;2023-06-04T08:09:37;20.10;96.20
40374;DHT22;26079;45.958;12.492;2023-06-04T08:12:03;20.00;97.30
40374;DHT22;26079;45.958;12.492;2023-06-04T08:14:29;20.00;99.00
40374;DHT22;26079;45.958;12.492;2023-06-04T08:16:54;19.80;99.90
40374;DHT22;26079;45.958;12.492;2023-06-04T08:19:20;19.70;99.90
40374;DHT22;26079;45.958;12.492;2023-06-04T08:21:46;19.40;99.90
40374;DHT22;26079;45.958;12.492;2023-06-04T08:24:12;19.20;99.90
40374;DHT22;26079;45.958;12.492;2023-06-04T08:26:38;19.10;99.90
40374;DHT22;26079;45.958;12.492;2023-06-04T08:29:04;19.00;99.90
40374;DHT22;26079;45.958;12.492;2023-06-04T08:31:31;19.00;99.90
40374;DHT22;26079;45.958;12.492;2023-06-04T08:33:56;19.00;99.90
40374;DHT22;26079;45.958;12.492;2023-06-04T08:36:22;19.00;99.90
40374;DHT22;26079;45.958;12.492;2023-06-04T08:38:48;19.00;99.90
40374;DHT22;26079;45.958;12.492;2023-06-04T08:43:47;18.80;99.90
40374;DHT22;26079;45.958;12.492;2023-06-04T08:46:15;18.80;99.90
40374;DHT22;26079;45.958;12.492;2023-06-04T08:48:43;18.80;99.90
40374;DHT22;26079;45.958;12.492;2023-06-04T08:51:10;18.80;99.90
40374;DHT22;26079;45.958;12.492;2023-06-04T08:53:36;18.80;99.90
40374;DHT22;26079;45.958;12.492;2023-06-04T08:56:02;18.80;99.90
40374;DHT22;26079;45.958;12.492;2023-06-04T08:58:31;18.80;99.90
40374;DHT22;26079;45.958;12.492;2023-06-04T09:01:00;18.80;99.90
40374;DHT22;26079;45.958;12.492;2023-06-04T09:03:26;18.80;99.90
40374;DHT22;26079;45.958;12.492;2023-06-04T09:05:52;18.80;99.90
40374;DHT22;26079;45.958;12.492;2023-06-04T09:08:19;18.80;99.90
40374;DHT22;26079;45.958;12.492;2023-06-04T09:10:46;18.90;99.90
40374;DHT22;26079;45.958;12.492;2023-06-04T09:13:18;18.90;99.90
40374;DHT22;26079;45.958;12.492;2023-06-04T09:15:44;18.90;99.90
40374;DHT22;26079;45.958;12.492;2023-06-04T09:18:11;18.90;99.90
40374;DHT22;26079;45.958;12.492;2023-06-04T09:20:37;19.00;99.90
40374;DHT22;26079;45.958;12.492;2023-06-04T09:23:13;19.00;99.90
40374;DHT22;26079;45.958;12.492;2023-06-04T09:25:43;19.10;99.90
40374;DHT22;26079;45.958;12.492;2023-06-04T09:28:09;19.10;99.90
40374;DHT22;26079;45.958;12.492;2023-06-04T09:30:35;19.10;99.90
40374;DHT22;26079;45.958;12.492;2023-06-04T09:33:08;19.10;99.90
40374;DHT22;26079;45.958;12.492;2023-06-04T09:35:34;19.10;99.90
40374;DHT22;26079;45.958;12.492;2023-06-04T09:38:00;19.10;99.90
40374;DHT22;26079;45.958;12.492;2023-06-04T09:40:38;19.10;99.90
40374;DHT22;26079;45.958;12.492;2023-06-04T09:43:03;19.10;99.90
40374;DHT22;26079;45.958;12.492;2023-06-04T09:45:34;19.20;99.90
40374;DHT22;26079;45.958;12.492;2023-06-04T09:48:02;19.10;99.90
40374;DHT22;26079;45.958;12.492;2023-06-04T09:50:34;19.20;99.90
40374;DHT22;26079;45.958;12.492;2023-06-04T09:53:19;19.10;99.90
40374;DHT22;26079;45.958;12.492;2023-06-04T09:55:58;19.10;99.90
40374;DHT22;26079;45.958;12.492;2023-06-04T09:58:27;19.00;99.90
40374;DHT22;26079;45.958;12.492;2023-06-04T10:00:58;18.90;99.90
40374;DHT22;26079;45.958;12.492;2023-06-04T10:03:25;18.90;99.90
40374;DHT22;26079;45.958;12.492;2023-06-04T10:05:57;19.00;99.90
40374;DHT22;26079;45.958;12.492;2023-06-04T10:08:23;19.00;99.90
40374;DHT22;26079;45.958;12.492;2023-06-04T10:10:51;19.10;99.90
40374;DHT22;26079;45.958;12.492;2023-06-04T10:13:20;19.20;99.90
40374;DHT22;26079;45.958;12.492;2023-06-04T10:15:47;19.30;99.90
40374;DHT22;26079;45.958;12.492;2023-06-04T10:18:14;19.40;99.90
40374;DHT22;26079;45.958;12.492;2023-06-04T10:20:41;19.50;99.90
40374;DHT22;26079;45.958;12.492;2023-06-04T10:23:07;19.60;99.90
40374;DHT22;26079;45.958;12.492;2023-06-04T10:25:37;19.70;99.90
40374;DHT22;26079;45.958;12.492;2023-06-04T10:28:03;19.70;98.20
40374;DHT22;26079;45.958;12.492;2023-06-04T10:30:30;19.70;97.80
40374;DHT22;26079;45.958;12.492;2023-06-04T10:32:57;19.70;98.10
40374;DHT22;26079;45.958;12.492;2023-06-04T10:35:36;19.80;98.60
40374;DHT22;26079;45.958;12.492;2023-06-04T10:38:09;19.80;98.10
40374;DHT22;26079;45.958;12.492;2023-06-04T10:40:36;19.80;99.00
40374;DHT22;26079;45.958;12.492;2023-06-04T10:43:06;20.00;99.90
40374;DHT22;26079;45.958;12.492;2023-06-04T10:45:32;20.20;98.20
40374;DHT22;26079;45.958;12.492;2023-06-04T10:48:03;20.40;96.60
40374;DHT22;26079;45.958;12.492;2023-06-04T10:50:29;20.60;96.70
40374;DHT22;26079;45.958;12.492;2023-06-04T10:52:55;20.80;96.00
40374;DHT22;26079;45.958;12.492;2023-06-04T10:55:24;21.00;96.10
40374;DHT22;26079;45.958;12.492;2023-06-04T10:58:00;21.10;97.60
40374;DHT22;26079;45.958;12.492;2023-06-04T11:00:40;21.10;94.40
40374;DHT22;26079;45.958;12.492;2023-06-04T11:03:07;21.20;92.00
40374;DHT22;26079;45.958;12.492;2023-06-04T11:05:44;21.20;93.00
40374;DHT22;26079;45.958;12.492;2023-06-04T11:08:11;21.30;93.30
40374;DHT22;26079;45.958;12.492;2023-06-04T11:10:39;21.40;91.70
40374;DHT22;26079;45.958;12.492;2023-06-04T11:13:05;21.50;90.60
40374;DHT22;26079;45.958;12.492;2023-06-04T11:15:45;21.70;90.60
40374;DHT22;26079;45.958;12.492;2023-06-04T11:18:16;21.90;89.20
40374;DHT22;26079;45.958;12.492;2023-06-04T11:20:44;22.00;88.70
40374;DHT22;26079;45.958;12.492;2023-06-04T11:23:12;22.00;87.30
40374;DHT22;26079;45.958;12.492;2023-06-04T11:25:38;22.10;89.50
40374;DHT22;26079;45.958;12.492;2023-06-04T11:28:04;22.30;87.00
40374;DHT22;26079;45.958;12.492;2023-06-04T11:30:29;22.40;88.00
40374;DHT22;26079;45.958;12.492;2023-06-04T11:33:03;22.50;88.30
40374;DHT22;26079;45.958;12.492;2023-06-04T11:35:29;22.50;85.60
40374;DHT22;26079;45.958;12.492;2023-06-04T11:37:56;22.50;86.90
40374;DHT22;26079;45.958;12.492;2023-06-04T11:40:22;22.50;86.70
40374;DHT22;26079;45.958;12.492;2023-06-04T11:42:49;22.60;87.70
40374;DHT22;26079;45.958;12.492;2023-06-04T11:45:20;22.60;87.10
40374;DHT22;26079;45.958;12.492;2023-06-04T11:47:53;22.70;85.80
40374;DHT22;26079;45.958;12.492;2023-06-04T11:50:20;22.80;86.30
40374;DHT22;26079;45.958;12.492;2023-06-04T11:52:47;22.80;86.40
40374;DHT22;26079;45.958;12.492;2023-06-04T11:55:14;22.90;85.70
40374;DHT22;26079;45.958;12.492;2023-06-04T11:57:40;22.90;84.20
40374;DHT22;26079;45.958;12.492;2023-06-04T12:00:07;22.90;84.90
40374;DHT22;26079;45.958;12.492;2023-06-04T12:02:36;23.00;85.70
40374;DHT22;26079;45.958;12.492;2023-06-04T12:05:16;23.20;87.80
40374;DHT22;26079;45.958;12.492;2023-06-04T12:07:44;23.40;82.70
40374;DHT22;26079;45.958;12.492;2023-06-04T12:10:10;23.40;84.10
40374;DHT22;26079;45.958;12.492;2023-06-04T12:12:37;23.40;82.30
40374;DHT22;26079;45.958;12.492;2023-06-04T12:15:03;23.40;85.20
40374;DHT22;26079;45.958;12.492;2023-06-04T12:17:31;23.50;84.30
40374;DHT22;26079;45.958;12.492;2023-06-04T12:19:57;23.50;84.40
40374;DHT22;26079;45.958;12.492;2023-06-04T12:22:24;23.50;82.70
40374;DHT22;26079;45.958;12.492;2023-06-04T12:24:55;23.50;85.60
40374;DHT22;26079;45.958;12.492;2023-06-04T12:27:23;23.60;83.60
40374;DHT22;26079;45.958;12.492;2023-06-04T12:30:02;23.50;83.90
40374;DHT22;26079;45.958;12.492;2023-06-04T12:32:28;23.70;82.40
40374;DHT22;26079;45.958;12.492;2023-06-04T12:34:55;23.90;84.40
40374;DHT22;26079;45.958;12.492;2023-06-04T12:37:23;23.90;83.10
40374;DHT22;26079;45.958;12.492;2023-06-04T12:39:53;24.10;81.00
40374;DHT22;26079;45.958;12.492;2023-06-04T12:42:19;24.10;79.50
40374;DHT22;26079;45.958;12.492;2023-06-04T12:44:46;24.00;79.30
40374;DHT22;26079;45.958;12.492;2023-06-04T12:47:12;23.90;80.00
40374;DHT22;26079;45.958;12.492;2023-06-04T12:49:37;24.00;80.90
40374;DHT22;26079;45.958;12.492;2023-06-04T12:52:04;24.20;81.90
40374;DHT22;26079;45.958;12.492;2023-06-04T12:54:30;24.20;79.20
40374;DHT22;26079;45.958;12.492;2023-06-04T12:56:56;24.30;80.20
40374;DHT22;26079;45.958;12.492;2023-06-04T12:59:27;24.20;79.50
40374;DHT22;26079;45.958;12.492;2023-06-04T13:01:54;24.30;79.40
40374;DHT22;26079;45.958;12.492;2023-06-04T13:04:19;24.30;80.10
40374;DHT22;26079;45.958;12.492;2023-06-04T13:06:45;24.40;80.60
40374;DHT22;26079;45.958;12.492;2023-06-04T13:09:12;24.50;79.90
40374;DHT22;26079;45.958;12.492;2023-06-04T13:11:39;24.60;79.90
40374;DHT22;26079;45.958;12.492;2023-06-04T13:14:07;24.70;78.10
40374;DHT22;26079;45.958;12.492;2023-06-04T13:16:32;24.70;78.20
40374;DHT22;26079;45.958;12.492;2023-06-04T13:18:58;24.70;79.60
40374;DHT22;26079;45.958;12.492;2023-06-04T13:21:27;24.50;77.20
40374;DHT22;26079;45.958;12.492;2023-06-04T13:23:53;24.60;79.70
40374;DHT22;26079;45.958;12.492;2023-06-04T13:26:19;24.50;77.40
40374;DHT22;26079;45.958;12.492;2023-06-04T13:28:46;24.50;80.50
40374;DHT22;26079;45.958;12.492;2023-06-04T13:31:12;24.50;78.60
40374;DHT22;26079;45.958;12.492;2023-06-04T13:33:38;24.50;79.70
40374;DHT22;26079;45.958;12.492;2023-06-04T13:36:05;24.60;78.80
40374;DHT22;26079;45.958;12.492;2023-06-04T13:38:32;24.70;79.40
40374;DHT22;26079;45.958;12.492;2023-06-04T13:40:58;24.70;80.20
40374;DHT22;26079;45.958;12.492;2023-06-04T13:43:23;24.80;80.70
40374;DHT22;26079;45.958;12.492;2023-06-04T13:45:49;24.70;79.10
40374;DHT22;26079;45.958;12.492;2023-06-04T13:48:15;24.70;80.10
40374;DHT22;26079;45.958;12.492;2023-06-04T13:50:41;24.70;76.60
40374;DHT22;26079;45.958;12.492;2023-06-04T13:53:10;24.70;76.80
40374;DHT22;26079;45.958;12.492;2023-06-04T13:55:38;24.70;78.10
40374;DHT22;26079;45.958;12.492;2023-06-04T13:58:04;24.60;77.50
40374;DHT22;26079;45.958;12.492;2023-06-04T14:00:30;24.60;77.70
40374;DHT22;26079;45.958;12.492;2023-06-04T14:02:56;24.70;77.10
40374;DHT22;26079;45.958;12.492;2023-06-04T14:05:24;24.70;75.80
40374;DHT22;26079;45.958;12.492;2023-06-04T14:07:50;24.60;79.60
40374;DHT22;26079;45.958;12.492;2023-06-04T14:10:16;24.60;77.70
40374;DHT22;26079;45.958;12.492;2023-06-04T14:12:41;24.50;77.20
40374;DHT22;26079;45.958;12.492;2023-06-04T14:15:08;24.50;78.00
40374;DHT22;26079;45.958;12.492;2023-06-04T14:17:34;24.50;77.50
40374;DHT22;26079;45.958;12.492;2023-06-04T14:20:01;24.60;77.50
40374;DHT22;26079;45.958;12.492;2023-06-04T14:22:33;24.60;77.80
40374;DHT22;26079;45.958;12.492;2023-06-04T14:24:59;24.60;77.10
40374;DHT22;26079;45.958;12.492;2023-06-04T14:27:25;24.60;75.70
40374;DHT22;26079;45.958;12.492;2023-06-04T14:29:50;24.60;78.00
40374;DHT22;26079;45.958;12.492;2023-06-04T14:32:16;24.60;75.00
40374;DHT22;26079;45.958;12.492;2023-06-04T14:34:42;24.60;77.70
40374;DHT22;26079;45.958;12.492;2023-06-04T14:37:07;24.60;76.80
40374;DHT22;26079;45.958;12.492;2023-06-04T14:39:33;24.60;77.20
40374;DHT22;26079;45.958;12.492;2023-06-04T14:41:58;24.80;76.70
40374;DHT22;26079;45.958;12.492;2023-06-04T14:44:24;24.90;75.10
40374;DHT22;26079;45.958;12.492;2023-06-04T14:46:50;25.00;74.50
40374;DHT22;26079;45.958;12.492;2023-06-04T14:49:17;25.00;76.40
40374;DHT22;26079;45.958;12.492;2023-06-04T14:51:42;25.00;73.40
40374;DHT22;26079;45.958;12.492;2023-06-04T14:54:08;24.90;74.70
40374;DHT22;26079;45.958;12.492;2023-06-04T14:56:34;25.00;76.80
40374;DHT22;26079;45.958;12.492;2023-06-04T14:58:59;25.10;75.00
40374;DHT22;26079;45.958;12.492;2023-06-04T15:01:26;25.20;74.20
40374;DHT22;26079;45.958;12.492;2023-06-04T15:03:52;25.30;74.60
40374;DHT22;26079;45.958;12.492;2023-06-04T15:06:18;25.40;73.60
40374;DHT22;26079;45.958;12.492;2023-06-04T15:08:44;25.30;73.50
40374;DHT22;26079;45.958;12.492;2023-06-04T15:11:10;25.30;74.90
40374;DHT22;26079;45.958;12.492;2023-06-04T15:13:36;25.30;75.40
40374;DHT22;26079;45.958;12.492;2023-06-04T15:16:02;25.50;73.40
40374;DHT22;26079;45.958;12.492;2023-06-04T15:18:28;25.40;72.80
40374;DHT22;26079;45.958;12.492;2023-06-04T15:20:54;25.30;76.50